sensor_id;sensor_type;location;lat;lon;timestamp;pressure;altitude;pressure_sealevel;temperature
73673;BMP280;61972;19.480;-99.240;2023-05-10T00:01:17;77696.94;;;27.37
73673;BMP280;61972;19.480;-99.240;2023-05-10T00:03:44;77708.00;;;27.38
73673;BMP280;61972;19.480;-99.240;2023-05-10T00:06:18;77698.63;;;27.39
73673;BMP280;61972;19.480;-99.240;2023-05-10T00:08:51;77694.47;;;27.40
73673;BMP280;61972;19.480;-99.240;2023-05-10T00:11:46;77700.84;;;27.41
73673;BMP280;61972;19.480;-99.240;2023-05-10T00:14:12;77709.81;;;27.42
73673;BMP280;61972;19.480;-99.240;2023-05-10T00:22:27;77704.72;;;27.44
73673;BMP280;61972;19.480;-99.240;2023-05-10T00:25:17;77710.53;;;27.45
73673;BMP280;61972;19.480;-99.240;2023-05-10T00:27:59;77721.56;;;27.45
73673;BMP280;61972;19.480;-99.240;2023-05-10T00:30:27;77727.94;;;27.46
73673;BMP280;61972;19.480;-99.240;2023-05-10T00:33:02;77720.06;;;27.46
73673;BMP280;61972;19.480;-99.240;2023-05-10T01:20:08;77741.16;;;27.39
73673;BMP280;61972;19.480;-99.240;2023-05-10T01:35:31;77770.81;;;27.35
73673;BMP280;61972;19.480;-99.240;2023-05-10T01:38:29;77778.69;;;27.35
73673;BMP280;61972;19.480;-99.240;2023-05-10T01:44:04;77780.78;;;27.35
73673;BMP280;61972;19.480;-99.240;2023-05-10T01:46:37;77783.41;;;27.35
73673;BMP280;61972;19.480;-99.240;2023-05-10T01:49:23;77784.91;;;27.33
73673;BMP280;61972;19.480;-99.240;2023-05-10T01:51:52;77778.69;;;27.35
73673;BMP280;61972;19.480;-99.240;2023-05-10T01:54:35;77780.19;;;27.34
73673;BMP280;61972;19.480;-99.240;2023-05-10T01:57:06;77783.78;;;27.32
73673;BMP280;61972;19.480;-99.240;2023-05-10T02:03:49;77785.84;;;27.32
73673;BMP280;61972;19.480;-99.240;2023-05-10T02:07:09;77789.44;;;27.30
73673;BMP280;61972;19.480;-99.240;2023-05-10T02:10:22;77798.81;;;27.29
73673;BMP280;61972;19.480;-99.240;2023-05-10T02:48:36;77826.31;;;27.16
73673;BMP280;61972;19.480;-99.240;2023-05-10T02:52:10;77834.75;;;27.17
73673;BMP280;61972;19.480;-99.240;2023-05-10T02:59:41;77824.66;;;27.14
73673;BMP280;61972;19.480;-99.240;2023-05-10T03:02:27;77832.53;;;27.14
73673;BMP280;61972;19.480;-99.240;2023-05-10T03:04:53;77838.34;;;27.15
73673;BMP280;61972;19.480;-99.240;2023-05-10T03:07:33;77839.06;;;27.18
73673;BMP280;61972;19.480;-99.240;2023-05-10T03:10:00;77838.97;;;27.25
73673;BMP280;61972;19.480;-99.240;2023-05-10T03:18:44;77844.69;;;27.50
73673;BMP280;61972;19.480;-99.240;2023-05-10T03:21:16;77843.81;;;27.61
73673;BMP280;61972;19.480;-99.240;2023-05-10T03:23:51;77844.94;;;27.72
73673;BMP280;61972;19.480;-99.240;2023-05-10T03:26:23;77850.97;;;27.85
73673;BMP280;61972;19.480;-99.240;2023-05-10T03:28:52;77848.97;;;27.95
73673;BMP280;61972;19.480;-99.240;2023-05-10T03:31:19;77849.56;;;28.05
73673;BMP280;61972;19.480;-99.240;2023-05-10T03:33:49;77855.03;;;28.18
73673;BMP280;61972;19.480;-99.240;2023-05-10T03:36:16;77857.16;;;28.27
73673;BMP280;61972;19.480;-99.240;2023-05-10T03:38:42;77856.63;;;28.36
73673;BMP280;61972;19.480;-99.240;2023-05-10T03:41:11;77853.47;;;28.45
73673;BMP280;61972;19.480;-99.240;2023-05-10T03:43:38;77860.84;;;28.55
73673;BMP280;61972;19.480;-99.240;2023-05-10T03:46:05;77856.59;;;28.63
73673;BMP280;61972;19.480;-99.240;2023-05-10T03:51:12;77860.09;;;28.78
73673;BMP280;61972;19.480;-99.240;2023-05-10T03:53:38;77851.38;;;28.82
73673;BMP280;61972;19.480;-99.240;2023-05-10T03:56:04;77863.31;;;28.89
73673;BMP280;61972;19.480;-99.240;2023-05-10T03:58:30;77858.75;;;28.92
73673;BMP280;61972;19.480;-99.240;2023-05-10T04:00:56;77870.66;;;28.98
73673;BMP280;61972;19.480;-99.240;2023-05-10T04:03:23;77870.25;;;29.00
73673;BMP280;61972;19.480;-99.240;2023-05-10T04:05:49;77865.84;;;29.06
73673;BMP280;61972;19.480;-99.240;2023-05-10T04:08:23;77870.28;;;29.10
73673;BMP280;61972;19.480;-99.240;2023-05-10T04:10:50;77866.25;;;29.13
73673;BMP280;61972;19.480;-99.240;2023-05-10T04:13:16;77860.72;;;29.18
73673;BMP280;61972;19.480;-99.240;2023-05-10T04:15:42;77863.53;;;29.20
73673;BMP280;61972;19.480;-99.240;2023-05-10T04:18:09;77875.84;;;29.25
73673;BMP280;61972;19.480;-99.240;2023-05-10T04:20:35;77878.06;;;29.27
73673;BMP280;61972;19.480;-99.240;2023-05-10T04:23:02;77876.13;;;29.30
73673;BMP280;61972;19.480;-99.240;2023-05-10T04:25:28;77880.41;;;29.31
73673;BMP280;61972;19.480;-99.240;2023-05-10T04:27:57;77876.28;;;29.32
73673;BMP280;61972;19.480;-99.240;2023-05-10T04:30:23;77877.38;;;29.33
73673;BMP280;61972;19.480;-99.240;2023-05-10T04:32:50;77872.66;;;29.34
73673;BMP280;61972;19.480;-99.240;2023-05-10T04:35:16;77876.41;;;29.35
73673;BMP280;61972;19.480;-99.240;2023-05-10T04:37:42;77867.53;;;29.36
73673;BMP280;61972;19.480;-99.240;2023-05-10T04:40:09;77861.72;;;29.36
73673;BMP280;61972;19.480;-99.240;2023-05-10T04:42:35;77855.50;;;29.37
73673;BMP280;61972;19.480;-99.240;2023-05-10T04:45:02;77850.22;;;29.37
73673;BMP280;61972;19.480;-99.240;2023-05-10T04:47:28;77845.50;;;29.38
73673;BMP280;61972;19.480;-99.240;2023-05-10T04:49:58;77845.50;;;29.38
73673;BMP280;61972;19.480;-99.240;2023-05-10T04:52:24;77851.34;;;29.38
73673;BMP280;61972;19.480;-99.240;2023-05-10T04:54:50;77848.28;;;29.40
73673;BMP280;61972;19.480;-99.240;2023-05-10T04:57:17;77853.00;;;29.40
73673;BMP280;61972;19.480;-99.240;2023-05-10T04:59:43;77851.47;;;29.41
73673;BMP280;61972;19.480;-99.240;2023-05-10T05:02:12;77850.94;;;29.40
73673;BMP280;61972;19.480;-99.240;2023-05-10T05:04:38;77846.63;;;29.39
73673;BMP280;61972;19.480;-99.240;2023-05-10T05:07:04;77850.34;;;29.40
73673;BMP280;61972;19.480;-99.240;2023-05-10T05:09:42;77851.91;;;29.39
73673;BMP280;61972;19.480;-99.240;2023-05-10T05:12:08;77847.19;;;29.39
73673;BMP280;61972;19.480;-99.240;2023-05-10T05:14:40;77850.78;;;29.38
73673;BMP280;61972;19.480;-99.240;2023-05-10T05:17:07;77853.41;;;29.38
73673;BMP280;61972;19.480;-99.240;2023-05-10T05:19:33;77850.78;;;29.38
73673;BMP280;61972;19.480;-99.240;2023-05-10T05:22:00;77844.41;;;29.37
73673;BMP280;61972;19.480;-99.240;2023-05-10T05:24:26;77843.84;;;29.36
73673;BMP280;61972;19.480;-99.240;2023-05-10T05:26:53;77838.03;;;29.36
73673;BMP280;61972;19.480;-99.240;2023-05-10T05:29:25;77836.91;;;29.35
73673;BMP280;61972;19.480;-99.240;2023-05-10T05:31:51;77836.38;;;29.34
73673;BMP280;61972;19.480;-99.240;2023-05-10T05:34:17;77830.56;;;29.34
73673;BMP280;61972;19.480;-99.240;2023-05-10T05:36:43;77833.19;;;29.34
73673;BMP280;61972;19.480;-99.240;2023-05-10T05:39:37;77828.34;;;29.32
73673;BMP280;61972;19.480;-99.240;2023-05-10T05:42:03;77828.34;;;29.32
73673;BMP280;61972;19.480;-99.240;2023-05-10T05:44:35;77828.75;;;29.30
73673;BMP280;61972;19.480;-99.240;2023-05-10T05:47:04;77819.75;;;29.29
73673;BMP280;61972;19.480;-99.240;2023-05-10T05:49:34;77822.78;;;29.27
73673;BMP280;61972;19.480;-99.240;2023-05-10T05:52:12;77817.53;;;29.27
73673;BMP280;61972;19.480;-99.240;2023-05-10T05:54:41;77824.31;;;29.26
73673;BMP280;61972;19.480;-99.240;2023-05-10T06:00:08;77811.72;;;29.26
73673;BMP280;61972;19.480;-99.240;2023-05-10T06:02:35;77817.53;;;29.27
73673;BMP280;61972;19.480;-99.240;2023-05-10T06:05:02;77809.22;;;29.29
73673;BMP280;61972;19.480;-99.240;2023-05-10T06:07:28;77812.97;;;29.30
73673;BMP280;61972;19.480;-99.240;2023-05-10T06:10:08;77800.91;;;29.31
73673;BMP280;61972;19.480;-99.240;2023-05-10T06:12:35;77807.28;;;29.32
73673;BMP280;61972;19.480;-99.240;2023-05-10T06:15:08;77808.91;;;29.33
73673;BMP280;61972;19.480;-99.240;2023-05-10T06:17:34;77792.59;;;29.33
73673;BMP280;61972;19.480;-99.240;2023-05-10T06:20:04;77793.69;;;29.34
73673;BMP280;61972;19.480;-99.240;2023-05-10T06:22:33;77785.81;;;29.34
73673;BMP280;61972;19.480;-99.240;2023-05-10T06:25:03;77785.38;;;29.36
73673;BMP280;61972;19.480;-99.240;2023-05-10T06:27:32;77773.31;;;29.37
73673;BMP280;61972;19.480;-99.240;2023-05-10T06:32:52;77778.19;;;29.39
73673;BMP280;61972;19.480;-99.240;2023-05-10T06:35:22;77779.69;;;29.38
73673;BMP280;61972;19.480;-99.240;2023-05-10T06:37:51;77799.25;;;29.39
73673;BMP280;61972;19.480;-99.240;2023-05-10T06:40:20;77803.53;;;29.40
73673;BMP280;61972;19.480;-99.240;2023-05-10T06:42:47;77806.72;;;29.41
73673;BMP280;61972;19.480;-99.240;2023-05-10T06:45:22;77805.59;;;29.40
73673;BMP280;61972;19.480;-99.240;2023-05-10T06:47:48;77794.53;;;29.39
73673;BMP280;61972;19.480;-99.240;2023-05-10T06:50:14;77788.72;;;29.39
73673;BMP280;61972;19.480;-99.240;2023-05-10T06:52:43;77798.13;;;29.38
73673;BMP280;61972;19.480;-99.240;2023-05-10T06:55:10;77807.53;;;29.37
73673;BMP280;61972;19.480;-99.240;2023-05-10T06:57:39;77802.28;;;29.37
73673;BMP280;61972;19.480;-99.240;2023-05-10T07:00:09;77804.34;;;29.36
73673;BMP280;61972;19.480;-99.240;2023-05-10T07:02:36;77804.91;;;29.37
73673;BMP280;61972;19.480;-99.240;2023-05-10T07:05:24;77800.75;;;29.38
73673;BMP280;61972;19.480;-99.240;2023-05-10T07:07:53;77800.75;;;29.38
73673;BMP280;61972;19.480;-99.240;2023-05-10T07:13:43;77798.13;;;29.38
73673;BMP280;61972;19.480;-99.240;2023-05-10T07:16:22;77792.31;;;29.37
73673;BMP280;61972;19.480;-99.240;2023-05-10T07:22:00;77785.38;;;29.36
73673;BMP280;61972;19.480;-99.240;2023-05-10T07:24:27;77784.25;;;29.35
73673;BMP280;61972;19.480;-99.240;2023-05-10T07:26:53;77771.53;;;29.33
73673;BMP280;61972;19.480;-99.240;2023-05-10T07:29:20;77772.38;;;29.29
73673;BMP280;61972;19.480;-99.240;2023-05-10T07:31:46;77777.34;;;29.24
73673;BMP280;61972;19.480;-99.240;2023-05-10T07:34:12;77771.81;;;29.18
73673;BMP280;61972;19.480;-99.240;2023-05-10T07:36:38;77763.22;;;29.15
73673;BMP280;61972;19.480;-99.240;2023-05-10T07:39:05;77771.25;;;29.08
73673;BMP280;61972;19.480;-99.240;2023-05-10T07:41:34;77770.97;;;29.03
73673;BMP280;61972;19.480;-99.240;2023-05-10T07:44:09;77757.69;;;29.00
73673;BMP280;61972;19.480;-99.240;2023-05-10T07:46:44;77748.81;;;29.02
73673;BMP280;61972;19.480;-99.240;2023-05-10T07:49:11;77740.50;;;29.04
73673;BMP280;61972;19.480;-99.240;2023-05-10T07:51:40;77744.94;;;29.08
73673;BMP280;61972;19.480;-99.240;2023-05-10T07:57:00;77743.28;;;29.16
73673;BMP280;61972;19.480;-99.240;2023-05-10T08:02:16;77732.75;;;29.26
73673;BMP280;61972;19.480;-99.240;2023-05-10T08:04:42;77731.91;;;29.30
73673;BMP280;61972;19.480;-99.240;2023-05-10T08:07:08;77732.19;;;29.35
73673;BMP280;61972;19.480;-99.240;2023-05-10T08:09:34;77734.13;;;29.42
73673;BMP280;61972;19.480;-99.240;2023-05-10T08:12:00;77728.56;;;29.47
73673;BMP280;61972;19.480;-99.240;2023-05-10T08:14:28;77731.31;;;29.49
73673;BMP280;61972;19.480;-99.240;2023-05-10T08:16:54;77731.88;;;29.50
73673;BMP280;61972;19.480;-99.240;2023-05-10T08:19:21;77727.16;;;29.50
73673;BMP280;61972;19.480;-99.240;2023-05-10T08:21:48;77732.44;;;29.50
73673;BMP280;61972;19.480;-99.240;2023-05-10T08:24:14;77737.69;;;29.50
73673;BMP280;61972;19.480;-99.240;2023-05-10T08:26:41;77732.72;;;29.46
73673;BMP280;61972;19.480;-99.240;2023-05-10T08:29:07;77733.81;;;29.37
73673;BMP280;61972;19.480;-99.240;2023-05-10T08:31:33;77743.00;;;29.31
73673;BMP280;61972;19.480;-99.240;2023-05-10T08:33:59;77746.16;;;29.21
73673;BMP280;61972;19.480;-99.240;2023-05-10T08:36:25;77741.47;;;29.12
73673;BMP280;61972;19.480;-99.240;2023-05-10T08:38:54;77734.13;;;29.03
73673;BMP280;61972;19.480;-99.240;2023-05-10T08:41:21;77734.69;;;28.94
73673;BMP280;61972;19.480;-99.240;2023-05-10T08:43:50;77729.97;;;28.84
73673;BMP280;61972;19.480;-99.240;2023-05-10T08:46:18;77733.16;;;28.75
73673;BMP280;61972;19.480;-99.240;2023-05-10T08:48:45;77735.63;;;28.63
73673;BMP280;61972;19.480;-99.240;2023-05-10T08:51:19;77728.72;;;28.52
73673;BMP280;61972;19.480;-99.240;2023-05-10T08:53:47;77724.41;;;28.40
73673;BMP280;61972;19.480;-99.240;2023-05-10T08:56:15;77733.22;;;28.29
73673;BMP280;61972;19.480;-99.240;2023-05-10T08:58:43;77733.75;;;28.20
73673;BMP280;61972;19.480;-99.240;2023-05-10T09:01:10;77726.94;;;28.11
73673;BMP280;61972;19.480;-99.240;2023-05-10T09:03:38;77723.72;;;28.01
73673;BMP280;61972;19.480;-99.240;2023-05-10T09:06:04;77720.13;;;27.93
73673;BMP280;61972;19.480;-99.240;2023-05-10T09:08:31;77726.97;;;27.84
73673;BMP280;61972;19.480;-99.240;2023-05-10T09:10:57;77718.66;;;27.77
73673;BMP280;61972;19.480;-99.240;2023-05-10T09:13:24;77721.41;;;27.69
73673;BMP280;61972;19.480;-99.240;2023-05-10T09:15:52;77716.81;;;27.63
73673;BMP280;61972;19.480;-99.240;2023-05-10T09:18:18;77723.84;;;27.57
73673;BMP280;61972;19.480;-99.240;2023-05-10T09:20:45;77719.81;;;27.51
73673;BMP280;61972;19.480;-99.240;2023-05-10T09:23:11;77727.38;;;27.46
73673;BMP280;61972;19.480;-99.240;2023-05-10T09:25:37;77725.41;;;27.39
73673;BMP280;61972;19.480;-99.240;2023-05-10T09:28:06;77723.59;;;27.35
73673;BMP280;61972;19.480;-99.240;2023-05-10T09:30:34;77731.72;;;27.30
73673;BMP280;61972;19.480;-99.240;2023-05-10T09:33:01;77736.66;;;27.25
73673;BMP280;61972;19.480;-99.240;2023-05-10T09:35:30;77732.22;;;27.21
73673;BMP280;61972;19.480;-99.240;2023-05-10T09:37:59;77733.00;;;27.17
73673;BMP280;61972;19.480;-99.240;2023-05-10T09:40:27;77727.47;;;27.12
73673;BMP280;61972;19.480;-99.240;2023-05-10T09:42:58;77730.91;;;27.08
73673;BMP280;61972;19.480;-99.240;2023-05-10T09:45:29;77723.81;;;27.04
73673;BMP280;61972;19.480;-99.240;2023-05-10T09:47:56;77722.56;;;27.00
73673;BMP280;61972;19.480;-99.240;2023-05-10T09:50:23;77725.97;;;26.96
73673;BMP280;61972;19.480;-99.240;2023-05-10T09:52:54;77732.59;;;26.92
73673;BMP280;61972;19.480;-99.240;2023-05-10T09:55:23;77738.63;;;26.88
73673;BMP280;61972;19.480;-99.240;2023-05-10T09:57:58;77740.53;;;26.85
73673;BMP280;61972;19.480;-99.240;2023-05-10T10:00:26;77739.25;;;26.82
73673;BMP280;61972;19.480;-99.240;2023-05-10T10:02:57;77739.09;;;26.79
73673;BMP280;61972;19.480;-99.240;2023-05-10T10:05:32;77745.13;;;26.75
73673;BMP280;61972;19.480;-99.240;2023-05-10T10:07:59;77748.16;;;26.73
73673;BMP280;61972;19.480;-99.240;2023-05-10T10:10:26;77751.19;;;26.71
73673;BMP280;61972;19.480;-99.240;2023-05-10T10:12:53;77751.00;;;26.68
73673;BMP280;61972;19.480;-99.240;2023-05-10T10:15:23;77750.28;;;26.65
73673;BMP280;61972;19.480;-99.240;2023-05-10T10:17:50;77752.78;;;26.63
73673;BMP280;61972;19.480;-99.240;2023-05-10T10:20:18;77751.50;;;26.59
73673;BMP280;61972;19.480;-99.240;2023-05-10T10:22:45;77745.00;;;26.55
73673;BMP280;61972;19.480;-99.240;2023-05-10T10:25:13;77746.31;;;26.52
73673;BMP280;61972;19.480;-99.240;2023-05-10T10:30:30;77742.66;;;26.44
73673;BMP280;61972;19.480;-99.240;2023-05-10T10:35:55;77751.16;;;26.37
73673;BMP280;61972;19.480;-99.240;2023-05-10T10:38:23;77748.94;;;26.35
73673;BMP280;61972;19.480;-99.240;2023-05-10T10:41:02;77750.44;;;26.34
73673;BMP280;61972;19.480;-99.240;2023-05-10T10:43:29;77745.19;;;26.34
73673;BMP280;61972;19.480;-99.240;2023-05-10T10:46:16;77739.81;;;26.31
73673;BMP280;61972;19.480;-99.240;2023-05-10T10:49:09;77749.72;;;26.31
73673;BMP280;61972;19.480;-99.240;2023-05-10T10:51:39;77748.59;;;26.30
73673;BMP280;61972;19.480;-99.240;2023-05-10T10:54:28;77751.63;;;26.28
73673;BMP280;61972;19.480;-99.240;2023-05-10T10:57:14;77755.75;;;26.27
73673;BMP280;61972;19.480;-99.240;2023-05-10T10:59:44;77748.28;;;26.25
73673;BMP280;61972;19.480;-99.240;2023-05-10T11:07:57;77761.06;;;26.19
73673;BMP280;61972;19.480;-99.240;2023-05-10T11:10:25;77760.50;;;26.19
73673;BMP280;61972;19.480;-99.240;2023-05-10T11:15:19;77760.34;;;26.16
73673;BMP280;61972;19.480;-99.240;2023-05-10T11:17:48;77758.66;;;26.15
73673;BMP280;61972;19.480;-99.240;2023-05-10T11:20:17;77754.94;;;26.14
73673;BMP280;61972;19.480;-99.240;2023-05-10T11:22:52;77753.28;;;26.12
73673;BMP280;61972;19.480;-99.240;2023-05-10T11:25:19;77754.78;;;26.11
73673;BMP280;61972;19.480;-99.240;2023-05-10T11:27:48;77749.94;;;26.09
73673;BMP280;61972;19.480;-99.240;2023-05-10T11:30:14;77751.44;;;26.08
73673;BMP280;61972;19.480;-99.240;2023-05-10T11:32:41;77748.09;;;26.05
73673;BMP280;61972;19.480;-99.240;2023-05-10T11:35:11;77743.25;;;26.03
73673;BMP280;61972;19.480;-99.240;2023-05-10T11:37:39;77740.63;;;26.03
73673;BMP280;61972;19.480;-99.240;2023-05-10T11:40:10;77746.25;;;26.01
73673;BMP280;61972;19.480;-99.240;2023-05-10T11:42:39;77750.94;;;26.00
73673;BMP280;61972;19.480;-99.240;2023-05-10T11:45:06;77752.44;;;25.99
73673;BMP280;61972;19.480;-99.240;2023-05-10T11:47:33;77748.16;;;25.98
73673;BMP280;61972;19.480;-99.240;2023-05-10T11:50:01;77736.03;;;25.96
73673;BMP280;61972;19.480;-99.240;2023-05-10T11:52:28;77734.34;;;25.95
73673;BMP280;61972;19.480;-99.240;2023-05-10T11:54:55;77725.94;;;25.94
73673;BMP280;61972;19.480;-99.240;2023-05-10T11:57:26;77737.34;;;25.93
73673;BMP280;61972;19.480;-99.240;2023-05-10T11:59:58;77734.72;;;25.93
73673;BMP280;61972;19.480;-99.240;2023-05-10T12:02:25;77734.19;;;25.92
73673;BMP280;61972;19.480;-99.240;2023-05-10T12:04:51;77737.19;;;25.90
73673;BMP280;61972;19.480;-99.240;2023-05-10T12:07:18;77734.97;;;25.88
73673;BMP280;61972;19.480;-99.240;2023-05-10T12:09:44;77735.91;;;25.87
73673;BMP280;61972;19.480;-99.240;2023-05-10T12:12:16;77743.03;;;25.83
73673;BMP280;61972;19.480;-99.240;2023-05-10T12:14:42;77750.91;;;25.83
73673;BMP280;61972;19.480;-99.240;2023-05-10T12:17:12;77752.78;;;25.80
73673;BMP280;61972;19.480;-99.240;2023-05-10T12:19:39;77763.25;;;25.80
73673;BMP280;61972;19.480;-99.240;2023-05-10T12:22:06;77759.94;;;25.77
73673;BMP280;61972;19.480;-99.240;2023-05-10T12:24:35;77762.91;;;25.75
73673;BMP280;61972;19.480;-99.240;2023-05-10T12:27:05;77761.25;;;25.74
73673;BMP280;61972;19.480;-99.240;2023-05-10T12:29:33;77763.72;;;25.71
73673;BMP280;61972;19.480;-99.240;2023-05-10T12:31:59;77763.16;;;25.71
73673;BMP280;61972;19.480;-99.240;2023-05-10T12:34:33;77759.41;;;25.70
73673;BMP280;61972;19.480;-99.240;2023-05-10T12:37:01;77769.31;;;25.69
73673;BMP280;61972;19.480;-99.240;2023-05-10T12:39:41;77774.56;;;25.69
73673;BMP280;61972;19.480;-99.240;2023-05-10T12:42:08;77783.91;;;25.68
73673;BMP280;61972;19.480;-99.240;2023-05-10T12:44:34;77788.03;;;25.67
73673;BMP280;61972;19.480;-99.240;2023-05-10T12:47:00;77793.25;;;25.67
73673;BMP280;61972;19.480;-99.240;2023-05-10T12:49:26;77795.72;;;25.64
73673;BMP280;61972;19.480;-99.240;2023-05-10T12:51:52;77803.03;;;25.64
73673;BMP280;61972;19.480;-99.240;2023-05-10T12:54:19;77805.06;;;25.63
73673;BMP280;61972;19.480;-99.240;2023-05-10T12:56:45;77811.78;;;25.62
73673;BMP280;61972;19.480;-99.240;2023-05-10T12:59:11;77809.19;;;25.62
73673;BMP280;61972;19.480;-99.240;2023-05-10T13:01:37;77805.44;;;25.61
73673;BMP280;61972;19.480;-99.240;2023-05-10T13:04:03;77815.38;;;25.61
73673;BMP280;61972;19.480;-99.240;2023-05-10T13:06:30;77822.09;;;25.60
73673;BMP280;61972;19.480;-99.240;2023-05-10T13:08:56;77819.47;;;25.60
73673;BMP280;61972;19.480;-99.240;2023-05-10T13:11:23;77822.47;;;25.58
73673;BMP280;61972;19.480;-99.240;2023-05-10T13:13:49;77825.66;;;25.58
73673;BMP280;61972;19.480;-99.240;2023-05-10T13:16:15;77824.00;;;25.57
73673;BMP280;61972;19.480;-99.240;2023-05-10T13:18:41;77827.72;;;25.58
73673;BMP280;61972;19.480;-99.240;2023-05-10T13:21:07;77827.72;;;25.58
73673;BMP280;61972;19.480;-99.240;2023-05-10T13:23:34;77840.25;;;25.57
73673;BMP280;61972;19.480;-99.240;2023-05-10T13:26:00;77850.16;;;25.57
73673;BMP280;61972;19.480;-99.240;2023-05-10T13:28:26;77851.66;;;25.56
73673;BMP280;61972;19.480;-99.240;2023-05-10T13:30:53;77846.97;;;25.56
73673;BMP280;61972;19.480;-99.240;2023-05-10T13:33:21;77852.59;;;25.54
73673;BMP280;61972;19.480;-99.240;2023-05-10T13:35:47;77857.25;;;25.54
73673;BMP280;61972;19.480;-99.240;2023-05-10T13:38:13;77853.53;;;25.53
73673;BMP280;61972;19.480;-99.240;2023-05-10T13:40:42;77846.09;;;25.51
73673;BMP280;61972;19.480;-99.240;2023-05-10T13:43:08;77853.94;;;25.51
73673;BMP280;61972;19.480;-99.240;2023-05-10T13:45:34;77854.84;;;25.49
73673;BMP280;61972;19.480;-99.240;2023-05-10T13:48:01;77852.25;;;25.49
73673;BMP280;61972;19.480;-99.240;2023-05-10T13:50:28;77848.50;;;25.48
73673;BMP280;61972;19.480;-99.240;2023-05-10T13:52:54;77853.19;;;25.47
73673;BMP280;61972;19.480;-99.240;2023-05-10T13:55:20;77856.91;;;25.49
73673;BMP280;61972;19.480;-99.240;2023-05-10T13:57:46;77858.41;;;25.47
73673;BMP280;61972;19.480;-99.240;2023-05-10T14:00:13;77860.47;;;25.47
73673;BMP280;61972;19.480;-99.240;2023-05-10T14:02:39;77857.31;;;25.46
73673;BMP280;61972;19.480;-99.240;2023-05-10T14:05:06;77862.53;;;25.46
73673;BMP280;61972;19.480;-99.240;2023-05-10T14:07:32;77857.31;;;25.46
73673;BMP280;61972;19.480;-99.240;2023-05-10T14:09:59;77858.41;;;25.47
73673;BMP280;61972;19.480;-99.240;2023-05-10T14:12:28;77850.97;;;25.45
73673;BMP280;61972;19.480;-99.240;2023-05-10T14:14:54;77850.41;;;25.45
73673;BMP280;61972;19.480;-99.240;2023-05-10T14:17:20;77857.69;;;25.44
73673;BMP280;61972;19.480;-99.240;2023-05-10T14:19:47;77856.75;;;25.46
73673;BMP280;61972;19.480;-99.240;2023-05-10T14:22:23;77852.44;;;25.44
73673;BMP280;61972;19.480;-99.240;2023-05-10T14:24:49;77848.91;;;25.46
73673;BMP280;61972;19.480;-99.240;2023-05-10T14:27:16;77853.56;;;25.45
73673;BMP280;61972;19.480;-99.240;2023-05-10T14:29:42;77849.28;;;25.44
73673;BMP280;61972;19.480;-99.240;2023-05-10T14:32:08;77849.84;;;25.44
73673;BMP280;61972;19.480;-99.240;2023-05-10T14:34:34;77846.13;;;25.43
73673;BMP280;61972;19.480;-99.240;2023-05-10T14:37:01;77846.66;;;25.44
73673;BMP280;61972;19.480;-99.240;2023-05-10T14:39:27;77852.28;;;25.42
73673;BMP280;61972;19.480;-99.240;2023-05-10T14:41:55;77849.09;;;25.41
73673;BMP280;61972;19.480;-99.240;2023-05-10T14:44:21;77858.06;;;25.42
73673;BMP280;61972;19.480;-99.240;2023-05-10T14:46:47;77858.06;;;25.42
73673;BMP280;61972;19.480;-99.240;2023-05-10T14:49:15;77863.31;;;25.42
73673;BMP280;61972;19.480;-99.240;2023-05-10T14:51:41;77862.19;;;25.41
73673;BMP280;61972;19.480;-99.240;2023-05-10T14:54:07;77865.91;;;25.42
73673;BMP280;61972;19.480;-99.240;2023-05-10T14:56:33;77863.31;;;25.42
73673;BMP280;61972;19.480;-99.240;2023-05-10T14:58:59;77861.63;;;25.41
73673;BMP280;61972;19.480;-99.240;2023-05-10T15:01:26;77862.19;;;25.41
73673;BMP280;61972;19.480;-99.240;2023-05-10T15:03:52;77856.41;;;25.41
73673;BMP280;61972;19.480;-99.240;2023-05-10T15:06:23;77861.63;;;25.41
73673;BMP280;61972;19.480;-99.240;2023-05-10T15:08:52;77864.44;;;25.43
73673;BMP280;61972;19.480;-99.240;2023-05-10T15:11:19;77863.31;;;25.42
73673;BMP280;61972;19.480;-99.240;2023-05-10T15:13:46;77863.31;;;25.42
73673;BMP280;61972;19.480;-99.240;2023-05-10T15:16:12;77853.97;;;25.43
73673;BMP280;61972;19.480;-99.240;2023-05-10T15:18:38;77857.69;;;25.44
73673;BMP280;61972;19.480;-99.240;2023-05-10T15:21:04;77860.28;;;25.44
73673;BMP280;61972;19.480;-99.240;2023-05-10T15:23:30;77855.06;;;25.44
73673;BMP280;61972;19.480;-99.240;2023-05-10T15:25:57;77860.28;;;25.44
73673;BMP280;61972;19.480;-99.240;2023-05-10T15:28:23;77859.94;;;25.46
73673;BMP280;61972;19.480;-99.240;2023-05-10T15:30:50;77857.31;;;25.46
73673;BMP280;61972;19.480;-99.240;2023-05-10T15:33:16;77854.69;;;25.46
73673;BMP280;61972;19.480;-99.240;2023-05-10T15:35:42;77853.72;;;25.48
73673;BMP280;61972;19.480;-99.240;2023-05-10T15:38:09;77850.19;;;25.50
73673;BMP280;61972;19.480;-99.240;2023-05-10T15:40:35;77853.38;;;25.50
73673;BMP280;61972;19.480;-99.240;2023-05-10T15:43:02;77851.47;;;25.53
73673;BMP280;61972;19.480;-99.240;2023-05-10T15:45:28;77850.00;;;25.54
73673;BMP280;61972;19.480;-99.240;2023-05-10T15:47:54;77856.88;;;25.56
73673;BMP280;61972;19.480;-99.240;2023-05-10T15:50:20;77852.75;;;25.57
73673;BMP280;61972;19.480;-99.240;2023-05-10T15:52:47;77848.09;;;25.57
73673;BMP280;61972;19.480;-99.240;2023-05-10T15:55:13;77846.59;;;25.58
73673;BMP280;61972;19.480;-99.240;2023-05-10T15:57:40;77841.53;;;25.61
73673;BMP280;61972;19.480;-99.240;2023-05-10T16:00:11;77836.31;;;25.61
73673;BMP280;61972;19.480;-99.240;2023-05-10T16:02:38;77837.41;;;25.62
73673;BMP280;61972;19.480;-99.240;2023-05-10T16:05:05;77841.16;;;25.63
73673;BMP280;61972;19.480;-99.240;2023-05-10T16:07:33;77842.28;;;25.64
73673;BMP280;61972;19.480;-99.240;2023-05-10T16:09:59;77839.66;;;25.64
73673;BMP280;61972;19.480;-99.240;2023-05-10T16:12:29;77835.53;;;25.65
73673;BMP280;61972;19.480;-99.240;2023-05-10T16:14:56;77848.22;;;25.67
73673;BMP280;61972;19.480;-99.240;2023-05-10T16:17:22;77842.97;;;25.67
73673;BMP280;61972;19.480;-99.240;2023-05-10T16:19:48;77836.25;;;25.68
73673;BMP280;61972;19.480;-99.240;2023-05-10T16:22:14;77831.56;;;25.69
73673;BMP280;61972;19.480;-99.240;2023-05-10T16:24:40;77835.88;;;25.70
73673;BMP280;61972;19.480;-99.240;2023-05-10T16:27:07;77837.00;;;25.71